Time;durP1;ratioP1;P1;durP2;ratioP2;P2;SDS_P1;SDS_P2;PMS_P1;PMS_P2;Temp;Humidity;BMP_temperature;BMP_pressure;BME280_temperature;BME280_humidity;BME280_pressure;Samples;Min_cycle;Max_cycle;Signal;HPM_P1;HPM_P2
2021/03/01 00:02:11;;;;;;;13.50;6.00;;;5.10;67.10;;;;;;5016632;28;20375;-82
2021/03/01 00:04:36;;;;;;;13.53;6.00;;;5.10;67.50;;;;;;5016696;28;20025;-83
2021/03/01 00:07:02;;;;;;;12.87;6.00;;;5.10;67.60;;;;;;5017400;28;20099;-82
2021/03/01 00:09:28;;;;;;;13.90;5.33;;;5.10;67.50;;;;;;5034183;28;20037;-82
2021/03/01 00:11:53;;;;;;;14.53;6.03;;;5.00;67.70;;;;;;5014271;28;20037;-83
2021/03/01 00:14:19;;;;;;;15.77;6.10;;;5.00;67.90;;;;;;5020217;28;20058;-83
2021/03/01 00:16:44;;;;;;;12.73;5.63;;;4.90;67.80;;;;;;5033321;28;20033;-83
2021/03/01 00:19:10;;;;;;;14.17;5.83;;;4.90;67.90;;;;;;5032418;28;20025;-82
2021/03/01 00:21:36;;;;;;;14.33;6.13;;;4.90;67.80;;;;;;5033387;28;20256;-83
2021/03/01 00:24:01;;;;;;;13.43;5.93;;;4.70;67.80;;;;;;5033526;28;20072;-82
2021/03/01 00:26:27;;;;;;;14.17;6.23;;;4.70;68.00;;;;;;5033047;28;20113;-82
2021/03/01 00:28:53;;;;;;;16.30;6.27;;;4.70;68.20;;;;;;5033610;28;20044;-82
2021/03/01 00:31:19;;;;;;;15.83;6.80;;;4.70;68.20;;;;;;5032873;28;20045;-81
2021/03/01 00:33:44;;;;;;;15.60;6.00;;;4.60;68.40;;;;;;5033271;28;20033;-82
2021/03/01 00:36:11;;;;;;;17.10;6.47;;;4.50;68.90;;;;;;5033365;28;20025;-82
2021/03/01 00:38:36;;;;;;;15.80;6.27;;;4.50;69.30;;;;;;5032622;28;20025;-82
2021/03/01 00:41:02;;;;;;;15.17;6.63;;;4.60;69.50;;;;;;5033146;28;20040;-81
2021/03/01 00:43:32;;;;;;;14.90;6.73;;;4.60;69.40;;;;;;5032876;28;20032;-81
2021/03/01 00:45:58;;;;;;;16.20;6.20;;;4.50;69.50;;;;;;5033249;28;20115;-80
2021/03/01 00:48:24;;;;;;;16.70;6.70;;;4.50;69.50;;;;;;5032181;28;20489;-80
2021/03/01 00:50:50;;;;;;;15.70;6.90;;;4.50;69.80;;;;;;5028501;28;20030;-80
2021/03/01 00:53:28;;;;;;;17.13;6.20;;;4.50;69.70;;;;;;5021964;28;20124;-82
2021/03/01 00:55:54;;;;;;;15.43;6.33;;;4.50;69.70;;;;;;5032744;28;20164;-82
2021/03/01 00:58:20;;;;;;;12.63;5.90;;;4.40;70.10;;;;;;5048658;28;20450;-82
2021/03/01 01:00:48;;;;;;;14.40;5.80;;;4.40;69.90;;;;;;5032750;28;20053;-81
2021/03/01 01:03:16;;;;;;;13.00;5.90;;;4.40;69.80;;;;;;5029092;28;20037;-82
2021/03/01 07:45:51;;;;;;;16.30;6.37;;;3.20;74.60;;;;;;5243845;23;22334;-79
2021/03/01 07:48:17;;;;;;;17.63;6.83;;;3.20;74.40;;;;;;4918000;29;20055;-79
2021/03/01 07:50:45;;;;;;;18.00;7.00;;;3.20;74.60;;;;;;4919035;29;20107;-79
2021/03/01 07:53:50;;;;;;;17.90;6.77;;;3.30;74.40;;;;;;4915650;29;20057;-82
2021/03/01 07:56:25;;;;;;;16.23;6.30;;;3.30;74.30;;;;;;4913062;29;20059;-82
2021/03/01 07:59:01;;;;;;;19.70;7.20;;;3.40;74.00;;;;;;4922374;29;20734;-80
2021/03/01 08:01:28;;;;;;;15.73;6.73;;;3.50;74.00;;;;;;4935282;29;20035;-79
2021/03/01 08:03:54;;;;;;;17.70;6.60;;;3.50;73.40;;;;;;4924296;29;20104;-79
2021/03/01 08:06:20;;;;;;;15.70;7.10;;;3.60;73.30;;;;;;4922384;29;20028;-79
2021/03/01 08:08:50;;;;;;;14.37;6.33;;;3.70;73.20;;;;;;4921176;29;20037;-80
2021/03/01 08:11:42;;;;;;;15.50;6.47;;;3.70;73.10;;;;;;4914752;29;20135;-79
2021/03/01 08:14:45;;;;;;;14.90;6.68;;;3.80;72.20;;;;;;4913617;29;20059;-75
2021/03/01 08:17:27;;;;;;;14.83;6.40;;;4.00;72.40;;;;;;4922344;29;20088;-77
2021/03/01 08:20:16;;;;;;;16.35;6.65;;;4.00;72.20;;;;;;4919489;29;20040;-80
2021/03/01 08:23:08;;;;;;;15.23;6.23;;;4.10;72.00;;;;;;4918987;29;20044;-80
2021/03/01 08:25:46;;;;;;;17.92;6.95;;;4.10;71.20;;;;;;4916649;29;20071;-82
2021/03/01 08:28:23;;;;;;;18.17;6.80;;;4.20;71.50;;;;;;4919456;29;20051;-78
2021/03/01 08:31:09;;;;;;;15.73;6.83;;;4.20;72.60;;;;;;4926186;29;20060;-79
2021/03/01 08:33:36;;;;;;;18.73;7.60;;;4.30;71.40;;;;;;4906829;29;20037;-82
2021/03/01 08:36:01;;;;;;;19.43;7.37;;;4.40;70.90;;;;;;4912254;29;20039;-82
2021/03/01 08:38:46;;;;;;;16.20;7.30;;;4.40;71.10;;;;;;4949349;23;20187;-81
2021/03/01 08:41:14;;;;;;;13.60;6.67;;;4.50;71.90;;;;;;4942409;28;20035;-84
2021/03/01 08:43:41;;;;;;;14.70;6.33;;;4.50;71.60;;;;;;4923071;29;20035;-84
2021/03/01 08:46:18;;;;;;;13.97;6.70;;;4.50;70.90;;;;;;4948361;29;20035;-84
2021/03/01 08:48:49;;;;;;;16.57;6.87;;;4.60;70.50;;;;;;4930798;29;20043;-81
2021/03/01 08:51:16;;;;;;;15.37;6.50;;;4.60;70.20;;;;;;4937710;29;20086;-78
2021/03/01 08:53:42;;;;;;;17.40;7.10;;;4.70;70.30;;;;;;4922619;29;20441;-84
2021/03/01 08:56:20;;;;;;;16.10;6.80;;;4.70;69.90;;;;;;4919097;29;20175;-85
2021/03/01 08:58:46;;;;;;;14.80;7.00;;;4.80;69.40;;;;;;4928491;29;20054;-79
2021/03/01 09:01:12;;;;;;;14.33;6.47;;;4.90;69.90;;;;;;4924813;29;20393;-80
2021/03/01 09:03:45;;;;;;;15.07;7.17;;;4.90;69.20;;;;;;4933231;29;20035;-83
2021/03/01 09:06:16;;;;;;;15.50;6.80;;;5.00;68.60;;;;;;4944777;29;20034;-79
2021/03/01 09:08:50;;;;;;;14.03;6.83;;;5.10;68.70;;;;;;4946402;29;20044;-79
2021/03/01 09:11:20;;;;;;;16.63;8.20;;;5.20;68.40;;;;;;4931489;29;20039;-81
2021/03/01 09:13:48;;;;;;;13.20;6.63;;;5.20;67.70;;;;;;4922524;29;20044;-81
2021/03/01 09:16:23;;;;;;;14.07;6.33;;;5.30;68.10;;;;;;4947074;29;20036;-80
2021/03/01 09:18:49;;;;;;;13.27;6.20;;;5.40;68.00;;;;;;4921414;29;20495;-86
2021/03/01 09:21:17;;;;;;;15.77;6.77;;;5.40;68.20;;;;;;4918729;29;20058;-83
2021/03/01 09:23:50;;;;;;;14.43;6.60;;;5.50;67.90;;;;;;4951747;29;20039;-85
2021/03/01 09:26:18;;;;;;;;;;;5.60;68.00;;;;;;4924439;29;20112;-80
2021/03/01 09:28:46;;;;;;;14.47;6.33;;;5.70;67.60;;;;;;4933783;29;19943;-87
2021/03/01 09:31:13;;;;;;;12.43;6.20;;;5.70;68.80;;;;;;4928691;29;20050;-87
2021/03/01 09:33:40;;;;;;;12.30;6.43;;;5.80;68.40;;;;;;4918058;29;20036;-76
2021/03/01 09:36:07;;;;;;;15.27;6.50;;;5.80;67.80;;;;;;4941036;29;20038;-80
2021/03/01 09:38:34;;;;;;;16.37;6.73;;;5.90;67.90;;;;;;4904375;29;20104;-83
2021/03/01 09:41:00;;;;;;;16.67;6.83;;;5.90;67.40;;;;;;4905570;29;20037;-81
2021/03/01 09:43:26;;;;;;;16.83;7.30;;;6.00;66.30;;;;;;4899533;29;20039;-84
2021/03/01 09:45:53;;;;;;;15.67;6.83;;;6.10;67.30;;;;;;4893716;29;20044;-84
2021/03/01 09:48:19;;;;;;;16.23;6.47;;;6.10;66.10;;;;;;4894185;29;20105;-85
2021/03/01 09:50:46;;;;;;;18.43;7.37;;;6.20;65.40;;;;;;4888545;29;20040;-80
2021/03/01 09:53:14;;;;;;;17.33;6.80;;;6.20;65.40;;;;;;4887313;29;20041;-82
2021/03/01 09:55:40;;;;;;;17.93;6.80;;;6.30;66.00;;;;;;4915101;29;20028;-83
2021/03/01 09:58:30;;;;;;;15.70;7.00;;;6.40;65.80;;;;;;4904442;29;20037;-83
2021/03/01 10:01:26;;;;;;;15.83;6.77;;;6.40;65.20;;;;;;4909088;29;20049;-81
2021/03/01 10:03:52;;;;;;;12.70;5.90;;;6.50;65.10;;;;;;4882071;29;20040;-83
2021/03/01 10:06:34;;;;;;;14.47;5.90;;;6.50;65.60;;;;;;4919346;29;20601;-82
2021/03/01 10:09:06;;;;;;;13.13;6.38;;;6.60;64.60;;;;;;4906451;29;20052;-80
2021/03/01 10:11:32;;;;;;;;;;;6.70;63.40;;;;;;4909170;29;20032;-81
2021/03/01 10:14:11;;;;;;;12.53;5.93;;;6.80;63.60;;;;;;4901721;29;19907;-79
2021/03/01 10:16:39;;;;;;;13.27;6.40;;;6.90;64.10;;;;;;4906427;29;20044;-78
2021/03/01 10:19:12;;;;;;;16.07;7.10;;;6.90;64.10;;;;;;4894624;29;20048;-78
2021/03/01 10:21:38;;;;;;;13.90;6.20;;;7.00;64.10;;;;;;4914856;29;20092;-78
2021/03/01 10:24:07;;;;;;;12.70;5.90;;;7.10;63.90;;;;;;4908035;29;20032;-78
2021/03/01 10:26:47;;;;;;;15.10;6.30;;;7.10;62.30;;;;;;4910663;29;20122;-76
2021/03/01 10:29:13;;;;;;;13.87;6.00;;;7.20;64.20;;;;;;4902898;29;20045;-80
2021/03/01 10:31:39;;;;;;;14.13;6.20;;;7.20;62.00;;;;;;4916668;29;20590;-80
2021/03/01 10:34:07;;;;;;;13.83;6.10;;;7.30;61.50;;;;;;4903168;29;20028;-80
2021/03/01 10:36:45;;;;;;;13.17;6.03;;;7.30;62.20;;;;;;4910074;29;20032;-80
2021/03/01 10:39:21;;;;;;;14.07;6.27;;;7.40;61.90;;;;;;4917459;29;20059;-80
2021/03/01 10:41:53;;;;;;;12.67;6.00;;;7.50;62.40;;;;;;4902483;29;20044;-79
2021/03/01 10:44:27;;;;;;;12.50;5.90;;;7.60;62.00;;;;;;4911953;29;20039;-79
2021/03/01 10:46:53;;;;;;;8.97;5.13;;;7.60;59.80;;;;;;4905332;29;20129;-79
2021/03/01 10:49:28;;;;;;;11.07;6.13;;;7.70;60.30;;;;;;4911789;29;20184;-79
2021/03/01 10:51:56;;;;;;;12.73;5.70;;;7.80;59.70;;;;;;4894482;29;20597;-80
2021/03/01 10:54:22;;;;;;;10.23;5.67;;;7.90;61.20;;;;;;4883896;29;20124;-79
2021/03/01 10:56:49;;;;;;;15.03;6.33;;;8.00;59.40;;;;;;4906311;29;20111;-79
2021/03/01 10:59:15;;;;;;;15.60;6.23;;;8.00;59.10;;;;;;4917990;29;20067;-81
2021/03/01 11:01:43;;;;;;;9.33;5.73;;;8.10;59.40;;;;;;4903764;29;20064;-79
2021/03/01 11:04:11;;;;;;;12.43;5.57;;;8.10;58.40;;;;;;4912548;29;20031;-81
2021/03/01 11:06:37;;;;;;;12.37;5.67;;;8.20;59.40;;;;;;4908496;29;20028;-81
2021/03/01 11:09:05;;;;;;;11.67;5.80;;;8.30;58.90;;;;;;4915113;29;20111;-80
2021/03/01 11:11:33;;;;;;;11.33;5.77;;;8.30;58.90;;;;;;4900795;29;20037;-86
2021/03/01 11:13:58;;;;;;;10.67;5.47;;;8.30;60.30;;;;;;4915036;29;20032;-87
2021/03/01 11:16:24;;;;;;;10.93;6.33;;;8.40;61.10;;;;;;4905971;29;20047;-83
2021/03/01 11:18:50;;;;;;;11.77;5.63;;;8.50;58.30;;;;;;4900221;29;20084;-83
2021/03/01 11:21:16;;;;;;;10.57;5.57;;;8.50;58.00;;;;;;4912148;29;20127;-85
2021/03/01 11:23:41;;;;;;;11.90;5.67;;;8.60;59.50;;;;;;4900834;29;20074;-78
2021/03/01 11:26:07;;;;;;;10.60;5.37;;;8.80;59.10;;;;;;4898423;29;20037;-83
2021/03/01 11:28:33;;;;;;;11.33;5.40;;;8.90;59.10;;;;;;4895580;29;20039;-82
2021/03/01 11:30:59;;;;;;;12.13;5.50;;;8.90;57.00;;;;;;4907698;29;20045;-83
2021/03/01 11:33:25;;;;;;;11.47;5.13;;;8.90;57.80;;;;;;4914586;29;20043;-80
2021/03/01 11:35:53;;;;;;;11.60;5.70;;;9.10;58.50;;;;;;4901948;29;20128;-79
2021/03/01 11:38:20;;;;;;;11.23;5.57;;;9.10;57.80;;;;;;4916435;29;20100;-79
2021/03/01 11:40:46;;;;;;;9.57;5.43;;;9.20;58.90;;;;;;4900899;29;20041;-81
2021/03/01 11:43:12;;;;;;;13.90;5.57;;;9.30;56.20;;;;;;4885715;29;20048;-79
2021/03/01 11:45:37;;;;;;;10.80;5.45;;;9.40;55.80;;;;;;4899393;29;20123;-79
2021/03/01 11:48:03;;;;;;;11.68;5.57;;;9.50;55.60;;;;;;4909752;29;20092;-79
2021/03/01 11:50:29;;;;;;;9.75;5.28;;;9.60;55.70;;;;;;4901824;29;20044;-78
2021/03/01 11:52:55;;;;;;;12.20;5.85;;;9.70;56.00;;;;;;4908054;29;20055;-78
2021/03/01 11:55:21;;;;;;;11.13;5.13;;;9.70;55.90;;;;;;4903324;29;20048;-78
2021/03/01 11:57:47;;;;;;;10.35;4.75;;;9.80;54.60;;;;;;4897616;29;20044;-78
2021/03/01 12:00:13;;;;;;;12.60;5.72;;;9.90;53.80;;;;;;4903640;29;20044;-79
2021/03/01 12:02:39;;;;;;;12.30;6.03;;;9.90;53.20;;;;;;4909766;29;20036;-84
2021/03/01 12:05:05;;;;;;;9.60;5.07;;;10.00;53.70;;;;;;4897947;29;20087;-81
2021/03/01 12:07:31;;;;;;;14.63;5.68;;;10.10;55.20;;;;;;4889661;29;20071;-79
2021/03/01 12:09:56;;;;;;;10.23;5.65;;;10.20;52.40;;;;;;4904709;29;20068;-84
2021/03/01 12:12:22;;;;;;;8.75;4.93;;;10.20;52.50;;;;;;4910563;29;20458;-81
2021/03/01 12:14:48;;;;;;;10.25;5.03;;;10.30;51.50;;;;;;4899514;29;20454;-81
2021/03/01 12:17:13;;;;;;;10.63;4.65;;;10.50;51.60;;;;;;4893700;29;20033;-82
2021/03/01 12:19:39;;;;;;;8.48;4.95;;;10.70;52.90;;;;;;4881984;29;20056;-79
2021/03/01 12:22:06;;;;;;;11.68;5.05;;;10.90;52.30;;;;;;4878672;29;20088;-78
2021/03/01 12:24:33;;;;;;;9.18;4.47;;;11.10;52.40;;;;;;4894270;29;20076;-78
2021/03/01 12:26:59;;;;;;;8.73;4.57;;;11.30;50.00;;;;;;4890009;29;20095;-79
2021/03/01 12:29:24;;;;;;;10.02;4.82;;;11.60;49.50;;;;;;4882473;29;20053;-80
2021/03/01 12:31:50;;;;;;;7.03;3.90;;;11.80;48.80;;;;;;4882859;29;20505;-85
2021/03/01 12:34:16;;;;;;;9.88;4.82;;;12.10;48.70;;;;;;4881729;29;20044;-84
2021/03/01 12:36:42;;;;;;;11.48;4.80;;;12.30;46.80;;;;;;4891894;29;20041;-82
2021/03/01 12:39:07;;;;;;;8.52;4.85;;;12.60;47.10;;;;;;4910199;29;20052;-86
2021/03/01 12:41:33;;;;;;;9.30;4.65;;;12.80;47.70;;;;;;4918294;29;20111;-82
2021/03/01 12:43:59;;;;;;;9.27;4.95;;;13.10;47.00;;;;;;4920412;29;20052;-87
2021/03/01 12:46:25;;;;;;;10.00;4.72;;;13.40;45.60;;;;;;4920338;29;20498;-82
2021/03/01 12:48:54;;;;;;;9.65;4.78;;;13.60;45.90;;;;;;4920057;29;20039;-82
2021/03/01 12:51:20;;;;;;;9.90;4.75;;;13.90;44.30;;;;;;4935326;29;20325;-87
2021/03/01 12:53:46;;;;;;;12.07;4.88;;;14.20;44.60;;;;;;4920191;29;20544;-88
2021/03/01 12:56:11;;;;;;;8.75;4.82;;;14.40;44.40;;;;;;4918954;29;20590;-81
2021/03/01 12:58:37;;;;;;;8.48;5.05;;;14.60;42.20;;;;;;4919052;29;20035;-80
2021/03/01 13:01:04;;;;;;;9.98;5.25;;;14.80;41.90;;;;;;4918784;29;20089;-85
2021/03/01 13:03:29;;;;;;;12.70;5.20;;;15.10;42.20;;;;;;4918860;29;20031;-78
2021/03/01 13:05:57;;;;;;;9.43;4.90;;;15.80;40.60;;;;;;4912823;29;20036;-78
2021/03/01 13:08:23;;;;;;;11.80;5.85;;;16.80;39.60;;;;;;4911221;29;20036;-77
2021/03/01 13:10:49;;;;;;;10.10;5.38;;;17.90;37.00;;;;;;4918285;29;20043;-80
2021/03/01 13:13:16;;;;;;;7.63;5.07;;;18.90;36.50;;;;;;4918616;29;20540;-85
2021/03/01 13:15:41;;;;;;;8.80;5.28;;;19.90;35.20;;;;;;4919158;29;20039;-80
2021/03/01 13:18:07;;;;;;;7.07;4.68;;;20.60;32.60;;;;;;4934730;29;20405;-76
2021/03/01 13:20:33;;;;;;;9.05;5.10;;;21.00;31.70;;;;;;4918303;29;20059;-79
2021/03/01 13:22:59;;;;;;;10.68;5.25;;;21.80;31.40;;;;;;4918607;29;20031;-78
2021/03/01 13:25:25;;;;;;;8.68;5.78;;;22.60;30.10;;;;;;4917974;29;20646;-76
2021/03/01 13:27:50;;;;;;;8.27;5.65;;;22.90;29.20;;;;;;4918266;29;20036;-77
2021/03/01 13:30:16;;;;;;;8.48;5.22;;;23.60;27.90;;;;;;4918365;29;20052;-84
2021/03/01 13:32:42;;;;;;;9.00;5.47;;;24.00;28.20;;;;;;4936406;29;20067;-82
2021/03/01 13:35:10;;;;;;;10.07;5.25;;;;;;;;;;4919003;29;20078;-82
2021/03/01 13:37:36;;;;;;;8.57;5.43;;;24.60;29.60;;;;;;4936285;29;20040;-83
2021/03/01 13:40:02;;;;;;;9.57;5.78;;;24.50;40.90;;;;;;4915945;29;20059;-79
2021/03/01 13:42:28;;;;;;;9.02;5.35;;;;;;;;;;4899779;29;20041;-79
2021/03/01 13:44:54;;;;;;;8.20;5.45;;;24.10;28.10;;;;;;4883267;29;20482;-80
2021/03/01 13:47:20;;;;;;;10.23;5.70;;;24.00;28.10;;;;;;4904105;29;20043;-78
2021/03/01 13:49:46;;;;;;;9.45;5.30;;;24.30;28.70;;;;;;4897082;29;20049;-79
2021/03/01 13:52:12;;;;;;;8.00;4.97;;;24.30;27.60;;;;;;4893967;29;20040;-81
2021/03/01 13:54:39;;;;;;;9.43;5.20;;;24.60;27.90;;;;;;4896599;29;20040;-80
2021/03/01 13:57:06;;;;;;;9.18;5.47;;;24.70;27.90;;;;;;4896319;29;20040;-80
2021/03/01 13:59:32;;;;;;;8.30;5.53;;;24.80;26.90;;;;;;4908906;29;20108;-78
2021/03/01 14:01:58;;;;;;;8.80;5.45;;;24.90;27.20;;;;;;4904614;29;20520;-83
2021/03/01 14:04:25;;;;;;;8.52;5.80;;;24.70;26.90;;;;;;4896354;29;20099;-79
2021/03/01 14:06:51;;;;;;;6.75;5.13;;;24.30;27.40;;;;;;4897079;29;20371;-81
2021/03/01 14:09:17;;;;;;;8.18;5.30;;;24.20;27.50;;;;;;4894198;29;20113;-83
2021/03/01 14:11:43;;;;;;;7.68;5.30;;;23.70;27.90;;;;;;4899098;29;20470;-85
2021/03/01 14:14:09;;;;;;;8.43;5.63;;;23.30;28.60;;;;;;4897661;29;20046;-82
2021/03/01 14:16:35;;;;;;;8.77;5.68;;;23.00;28.70;;;;;;4905699;29;20037;-84
2021/03/01 14:19:02;;;;;;;7.15;5.13;;;22.70;29.60;;;;;;4905191;29;20047;-82
2021/03/01 14:21:28;;;;;;;7.95;5.88;;;22.40;30.00;;;;;;4906321;29;20466;-87
2021/03/01 14:23:54;;;;;;;7.88;5.35;;;22.00;29.40;;;;;;4900323;29;20029;-87
2021/03/01 14:26:20;;;;;;;9.05;5.65;;;21.90;30.30;;;;;;4901870;29;20092;-84
2021/03/01 14:28:46;;;;;;;8.15;5.65;;;21.70;30.50;;;;;;4905962;29;20128;-80
2021/03/01 14:31:11;;;;;;;8.88;5.78;;;21.40;29.80;;;;;;4898858;29;20549;-82
2021/03/01 14:33:37;;;;;;;9.93;5.75;;;21.00;29.90;;;;;;4897575;29;20100;-86
2021/03/01 14:36:04;;;;;;;8.93;5.65;;;20.60;31.10;;;;;;4908291;29;20483;-83
2021/03/01 14:38:29;;;;;;;9.80;6.03;;;20.20;31.40;;;;;;4914754;29;20074;-80
2021/03/01 14:40:55;;;;;;;8.63;5.43;;;19.90;31.80;;;;;;4897770;29;20494;-80
2021/03/01 14:43:21;;;;;;;9.52;5.50;;;19.40;32.30;;;;;;4899754;29;20115;-78
2021/03/01 14:45:46;;;;;;;9.23;5.47;;;18.90;33.10;;;;;;4899409;29;20522;-84
2021/03/01 14:48:12;;;;;;;7.53;5.47;;;18.80;33.70;;;;;;4902545;29;20041;-77
2021/03/01 14:50:38;;;;;;;10.32;5.45;;;18.50;34.70;;;;;;4908162;29;20036;-77
2021/03/01 14:53:04;;;;;;;9.98;5.95;;;18.30;35.00;;;;;;4899834;29;20091;-75
2021/03/01 14:55:29;;;;;;;9.30;5.25;;;17.90;35.60;;;;;;4899429;29;20035;-76
2021/03/01 14:57:55;;;;;;;10.00;5.35;;;17.70;36.00;;;;;;4900213;29;20043;-76
2021/03/01 15:00:22;;;;;;;9.93;5.63;;;17.40;36.70;;;;;;4899392;29;20052;-77
2021/03/01 15:02:48;;;;;;;9.32;5.85;;;17.10;36.60;;;;;;4898381;29;20041;-80
2021/03/01 15:05:14;;;;;;;9.77;5.38;;;17.00;37.40;;;;;;4902211;29;20373;-80
2021/03/01 15:07:39;;;;;;;7.95;4.95;;;16.80;36.70;;;;;;4896538;29;20041;-78
2021/03/01 15:10:06;;;;;;;9.07;5.63;;;16.60;36.90;;;;;;4891195;29;20557;-81
2021/03/01 15:12:31;;;;;;;8.75;5.28;;;16.50;37.50;;;;;;4899468;29;20044;-76
2021/03/01 15:14:57;;;;;;;9.25;5.53;;;16.30;38.00;;;;;;4898817;29;20424;-80
2021/03/01 15:17:23;;;;;;;9.93;5.72;;;16.10;37.70;;;;;;4893855;29;20500;-78
2021/03/01 15:19:48;;;;;;;6.85;4.57;;;16.00;37.90;;;;;;4896906;29;20100;-77
2021/03/01 15:22:14;;;;;;;10.10;5.43;;;15.90;39.00;;;;;;4898932;29;20043;-79
2021/03/01 15:24:39;;;;;;;8.23;5.10;;;15.70;40.30;;;;;;4897179;29;20048;-80
2021/03/01 15:27:05;;;;;;;9.48;5.25;;;15.50;39.90;;;;;;4885390;29;20439;-81
2021/03/01 15:29:31;;;;;;;11.38;5.32;;;15.40;39.90;;;;;;4882194;29;20127;-83
2021/03/01 15:31:56;;;;;;;9.25;5.15;;;15.30;40.00;;;;;;4899372;29;20394;-79
2021/03/01 15:34:22;;;;;;;10.30;5.22;;;15.20;40.60;;;;;;4900115;29;20039;-82
2021/03/01 15:36:48;;;;;;;8.75;5.07;;;15.10;40.90;;;;;;4900124;29;20039;-82
2021/03/01 15:39:13;;;;;;;8.50;4.35;;;15.00;41.50;;;;;;4897577;29;20061;-80
2021/03/01 15:41:39;;;;;;;9.05;5.07;;;15.00;41.70;;;;;;4899353;29;20476;-81
2021/03/01 15:44:05;;;;;;;100.22;50.63;;;14.90;40.60;;;;;;4899024;29;20040;-80
2021/03/01 15:46:31;;;;;;;12.77;7.03;;;14.90;40.60;;;;;;4904135;29;20462;-79
2021/03/01 15:48:57;;;;;;;10.50;6.25;;;14.90;40.70;;;;;;4901012;29;20035;-79
2021/03/01 15:51:24;;;;;;;10.93;5.28;;;14.80;40.20;;;;;;4897862;29;20187;-80
2021/03/01 15:53:50;;;;;;;8.27;5.00;;;14.70;40.20;;;;;;4899400;29;20492;-79
2021/03/01 15:56:16;;;;;;;8.07;4.45;;;14.70;40.90;;;;;;4898400;29;20041;-80
2021/03/01 15:58:42;;;;;;;9.20;4.82;;;14.60;40.50;;;;;;4897790;29;20056;-82
2021/03/01 16:01:07;;;;;;;8.20;4.72;;;14.60;40.70;;;;;;4897849;29;20075;-83
2021/03/01 16:03:34;;;;;;;7.28;4.22;;;14.50;41.40;;;;;;4898276;29;20037;-82
2021/03/01 16:06:01;;;;;;;8.00;4.15;;;14.50;41.00;;;;;;4898794;29;20101;-82
2021/03/01 16:08:26;;;;;;;7.30;4.25;;;14.40;40.80;;;;;;4899518;29;20194;-83
2021/03/01 16:10:52;;;;;;;7.32;3.90;;;14.30;40.80;;;;;;4898514;29;20100;-85
2021/03/01 16:13:18;;;;;;;8.68;4.30;;;14.20;41.20;;;;;;4897841;29;20033;-79
2021/03/01 16:15:43;;;;;;;8.80;4.72;;;14.20;41.40;;;;;;4898385;29;20029;-79
2021/03/01 16:18:10;;;;;;;7.88;4.40;;;14.20;42.10;;;;;;4898286;29;20032;-78
2021/03/01 16:20:35;;;;;;;10.10;4.65;;;14.20;42.40;;;;;;4898947;29;20044;-78
2021/03/01 16:23:01;;;;;;;10.13;5.03;;;14.10;42.30;;;;;;4897111;29;20525;-78
2021/03/01 16:25:27;;;;;;;10.20;4.57;;;14.00;42.00;;;;;;4897570;29;20033;-77
2021/03/01 16:27:52;;;;;;;11.57;5.05;;;13.90;42.80;;;;;;4898531;29;20033;-82
2021/03/01 16:30:18;;;;;;;11.43;5.78;;;13.80;42.60;;;;;;4899413;29;20174;-76
2021/03/01 16:32:44;;;;;;;10.85;5.22;;;13.80;43.50;;;;;;4897115;29;20033;-76
2021/03/01 16:35:11;;;;;;;10.30;5.20;;;13.70;43.50;;;;;;4896071;29;20061;-77
2021/03/01 16:37:38;;;;;;;8.82;5.20;;;13.70;43.00;;;;;;4895840;29;20045;-75
2021/03/01 16:40:05;;;;;;;10.77;5.70;;;13.60;43.60;;;;;;4897023;29;20044;-75
2021/03/01 16:42:35;;;;;;;10.52;5.43;;;13.50;43.30;;;;;;4910095;29;20070;-89
2021/03/01 16:45:01;;;;;;;9.90;5.10;;;13.50;44.00;;;;;;4908350;29;20036;-84
2021/03/01 16:47:29;;;;;;;8.65;4.63;;;13.40;43.70;;;;;;4899283;29;20040;-83
2021/03/01 16:49:55;;;;;;;9.27;4.45;;;13.40;43.90;;;;;;4899651;29;20060;-83
2021/03/01 16:52:28;;;;;;;8.73;5.30;;;13.30;44.30;;;;;;4897580;29;20041;-82
2021/03/01 16:54:57;;;;;;;8.35;4.53;;;13.30;44.70;;;;;;4899127;29;20032;-80
2021/03/01 16:57:25;;;;;;;8.02;4.50;;;13.20;45.50;;;;;;4897686;29;20069;-83
2021/03/01 16:59:52;;;;;;;8.95;4.75;;;13.10;45.20;;;;;;4898240;29;20048;-86
2021/03/01 17:02:19;;;;;;;9.25;5.30;;;13.00;45.10;;;;;;4897295;29;20446;-84
2021/03/01 17:04:46;;;;;;;16.80;7.47;;;12.90;45.70;;;;;;4898427;29;20036;-85
2021/03/01 17:07:29;;;;;;;15.07;6.80;;;12.90;46.10;;;;;;4897203;29;20047;-83
2021/03/01 17:10:15;;;;;;;9.35;4.93;;;12.70;46.50;;;;;;4898344;29;20127;-87
2021/03/01 17:12:49;;;;;;;9.32;5.05;;;12.60;46.90;;;;;;4898473;29;20426;-85
2021/03/01 17:15:15;;;;;;;8.95;4.70;;;12.60;46.70;;;;;;4897262;29;20104;-88
2021/03/01 17:17:44;;;;;;;12.10;4.82;;;12.50;46.60;;;;;;4900877;29;20101;-90
2021/03/01 17:20:11;;;;;;;9.60;4.82;;;12.40;46.80;;;;;;4898664;29;20041;-79
2021/03/01 17:22:38;;;;;;;10.00;4.85;;;12.40;46.90;;;;;;4890658;29;20032;-76
2021/03/01 17:25:06;;;;;;;9.77;4.60;;;12.40;47.10;;;;;;4892031;29;20047;-78
2021/03/01 17:27:34;;;;;;;6.93;4.20;;;12.30;47.10;;;;;;4908442;29;20048;-77
2021/03/01 17:30:13;;;;;;;11.25;4.72;;;12.30;47.60;;;;;;4901575;29;20040;-76
2021/03/01 17:32:39;;;;;;;9.65;4.25;;;12.10;47.70;;;;;;4878404;29;20032;-79
2021/03/01 17:35:08;;;;;;;8.98;5.15;;;12.10;47.90;;;;;;4910285;29;20064;-79
2021/03/01 17:37:36;;;;;;;9.88;5.00;;;12.00;48.00;;;;;;4907284;29;20565;-79
2021/03/01 17:40:02;;;;;;;9.10;4.43;;;12.00;48.20;;;;;;4901093;29;20049;-79
2021/03/01 17:42:28;;;;;;;8.90;5.00;;;11.90;48.40;;;;;;4914515;29;20437;-78
2021/03/01 17:44:54;;;;;;;9.98;4.72;;;11.80;49.10;;;;;;4910072;29;20075;-79
2021/03/01 17:47:25;;;;;;;10.52;5.07;;;11.70;49.10;;;;;;4897704;29;20133;-79
2021/03/01 17:50:11;;;;;;;13.18;5.28;;;11.70;49.30;;;;;;4912209;29;20174;-77
2021/03/01 17:53:00;;;;;;;11.70;5.03;;;11.60;49.50;;;;;;4890856;29;20029;-79
2021/03/01 17:55:51;;;;;;;11.57;5.80;;;11.60;49.70;;;;;;4904716;29;20450;-79
2021/03/01 17:58:27;;;;;;;12.50;6.78;;;11.50;50.20;;;;;;4907225;29;20123;-79
2021/03/01 18:00:54;;;;;;;14.18;6.95;;;11.40;50.50;;;;;;4911529;29;20044;-79
2021/03/01 18:03:25;;;;;;;13.85;5.63;;;11.30;50.50;;;;;;4898050;29;20127;-79
2021/03/01 18:05:56;;;;;;;10.30;5.38;;;11.40;50.40;;;;;;4888937;29;20062;-79
2021/03/01 18:08:28;;;;;;;9.15;4.90;;;11.30;50.50;;;;;;4893624;29;20045;-78
2021/03/01 18:10:55;;;;;;;11.15;5.70;;;11.30;50.80;;;;;;4893051;29;20079;-82
2021/03/01 18:13:28;;;;;;;12.80;6.00;;;11.20;50.80;;;;;;4904410;29;20549;-81
2021/03/01 18:15:56;;;;;;;9.02;4.72;;;11.20;50.60;;;;;;4907404;29;20036;-83
2021/03/01 18:18:24;;;;;;;12.82;6.18;;;11.20;50.80;;;;;;4916935;29;20060;-81
2021/03/01 18:20:56;;;;;;;11.13;5.38;;;11.10;50.70;;;;;;4904604;29;20043;-80
2021/03/01 18:23:22;;;;;;;13.55;6.18;;;11.00;50.90;;;;;;4898748;29;20039;-81
2021/03/01 18:25:49;;;;;;;12.07;6.30;;;11.00;50.70;;;;;;4905409;29;20066;-84
2021/03/01 18:28:16;;;;;;;11.98;6.30;;;11.00;51.00;;;;;;4898245;29;20036;-79
2021/03/01 18:30:44;;;;;;;15.95;5.90;;;11.00;50.90;;;;;;4898729;29;20482;-81
2021/03/01 18:33:14;;;;;;;10.85;6.03;;;11.00;51.40;;;;;;4886017;29;20041;-80
2021/03/01 18:35:49;;;;;;;12.30;6.03;;;10.90;51.50;;;;;;4907635;29;20094;-79
2021/03/01 18:38:42;;;;;;;11.25;5.75;;;10.90;52.00;;;;;;4900486;29;20065;-83
2021/03/01 18:41:14;;;;;;;12.70;5.80;;;10.80;51.60;;;;;;4890289;29;20052;-83
2021/03/01 18:43:42;;;;;;;13.25;5.40;;;10.80;51.40;;;;;;4899197;29;20067;-82
2021/03/01 18:46:10;;;;;;;9.45;5.10;;;10.80;51.80;;;;;;4882989;29;20037;-82
2021/03/01 18:48:41;;;;;;;11.60;5.32;;;10.80;51.80;;;;;;4883570;29;20029;-82
2021/03/01 18:51:09;;;;;;;11.75;5.55;;;10.70;52.10;;;;;;4896309;29;20040;-82
2021/03/01 18:53:35;;;;;;;10.77;5.50;;;10.70;52.30;;;;;;4901707;29;20032;-81
2021/03/01 18:56:01;;;;;;;14.57;6.20;;;10.60;52.40;;;;;;4900672;29;20497;-79
2021/03/01 18:58:27;;;;;;;12.38;5.80;;;10.50;52.80;;;;;;4917031;29;20036;-85
2021/03/01 19:00:53;;;;;;;10.73;5.70;;;10.40;53.20;;;;;;4915362;29;20437;-83
2021/03/01 19:03:19;;;;;;;12.48;5.35;;;10.30;53.20;;;;;;4893881;29;20040;-82
2021/03/01 19:05:45;;;;;;;10.15;5.03;;;10.20;53.00;;;;;;4900608;29;20052;-83
2021/03/01 19:08:11;;;;;;;12.30;5.55;;;10.10;53.10;;;;;;4900188;29;20048;-84
2021/03/01 19:10:36;;;;;;;11.57;5.35;;;10.00;53.60;;;;;;4893876;29;20043;-83
2021/03/01 19:21:21;;;;;;;12.80;5.47;;;9.70;54.30;;;;;;5147335;23;21326;-81
2021/03/01 19:23:46;;;;;;;11.10;5.13;;;9.60;54.60;;;;;;4938138;28;20058;-80
2021/03/01 19:26:12;;;;;;;12.35;5.38;;;9.50;55.10;;;;;;4948384;28;20361;-79
2021/03/01 19:28:38;;;;;;;11.50;4.90;;;9.50;55.10;;;;;;4956768;28;20055;-79
2021/03/01 19:31:03;;;;;;;11.30;4.90;;;9.60;55.20;;;;;;4955150;29;20046;-79
2021/03/01 19:33:29;;;;;;;11.75;5.43;;;9.60;54.60;;;;;;4948915;29;20040;-78
2021/03/01 19:35:55;;;;;;;13.20;6.35;;;9.70;54.30;;;;;;4942964;29;20040;-78
2021/03/01 19:38:23;;;;;;;12.13;6.13;;;9.80;53.80;;;;;;4939608;28;20035;-78
2021/03/01 19:40:49;;;;;;;12.77;6.13;;;9.80;53.80;;;;;;4972381;28;20043;-78